sensor_id;sensor_type;location;lat;lon;timestamp;P1;durP1;ratioP1;P2;durP2;ratioP2
6077;SDS011;3067;49.470;10.394;2024-03-17T00:01:57;4.50;;;4.20;;
6077;SDS011;3067;49.470;10.394;2024-03-17T00:04:24;5.70;;;4.57;;
6077;SDS011;3067;49.470;10.394;2024-03-17T00:06:50;10.43;;;4.87;;
6077;SDS011;3067;49.470;10.394;2024-03-17T00:09:17;4.93;;;4.37;;
6077;SDS011;3067;49.470;10.394;2024-03-17T00:11:45;4.60;;;4.03;;
6077;SDS011;3067;49.470;10.394;2024-03-17T00:14:12;4.70;;;4.30;;
6077;SDS011;3067;49.470;10.394;2024-03-17T00:16:38;4.77;;;4.30;;
6077;SDS011;3067;49.470;10.394;2024-03-17T00:19:05;4.60;;;4.17;;
6077;SDS011;3067;49.470;10.394;2024-03-17T00:21:31;7.30;;;4.80;;
6077;SDS011;3067;49.470;10.394;2024-03-17T00:23:58;5.27;;;4.70;;
6077;SDS011;3067;49.470;10.394;2024-03-17T00:26:24;5.30;;;4.30;;
6077;SDS011;3067;49.470;10.394;2024-03-17T00:28:53;5.03;;;4.63;;
6077;SDS011;3067;49.470;10.394;2024-03-17T00:31:19;4.80;;;4.40;;
6077;SDS011;3067;49.470;10.394;2024-03-17T00:33:46;4.97;;;4.33;;
6077;SDS011;3067;49.470;10.394;2024-03-17T00:36:12;5.83;;;4.00;;
6077;SDS011;3067;49.470;10.394;2024-03-17T00:38:39;5.20;;;4.70;;
6077;SDS011;3067;49.470;10.394;2024-03-17T00:41:05;6.20;;;4.40;;
6077;SDS011;3067;49.470;10.394;2024-03-17T00:43:32;7.00;;;4.20;;
6077;SDS011;3067;49.470;10.394;2024-03-17T00:46:00;5.30;;;4.80;;
6077;SDS011;3067;49.470;10.394;2024-03-17T00:48:27;7.10;;;5.37;;
6077;SDS011;3067;49.470;10.394;2024-03-17T00:50:56;5.77;;;4.33;;
6077;SDS011;3067;49.470;10.394;2024-03-17T00:53:24;5.50;;;4.97;;
6077;SDS011;3067;49.470;10.394;2024-03-17T00:55:53;5.93;;;4.47;;
6077;SDS011;3067;49.470;10.394;2024-03-17T00:58:22;5.23;;;4.70;;
6077;SDS011;3067;49.470;10.394;2024-03-17T01:00:49;5.70;;;5.10;;
6077;SDS011;3067;49.470;10.394;2024-03-17T01:03:17;5.50;;;5.00;;
6077;SDS011;3067;49.470;10.394;2024-03-17T01:05:44;5.73;;;4.47;;
6077;SDS011;3067;49.470;10.394;2024-03-17T01:08:13;4.50;;;4.20;;
6077;SDS011;3067;49.470;10.394;2024-03-17T01:10:39;5.30;;;4.80;;
6077;SDS011;3067;49.470;10.394;2024-03-17T01:13:07;5.93;;;4.80;;
6077;SDS011;3067;49.470;10.394;2024-03-17T01:15:34;9.67;;;4.70;;
6077;SDS011;3067;49.470;10.394;2024-03-17T01:18:02;5.53;;;4.90;;
6077;SDS011;3067;49.470;10.394;2024-03-17T01:20:31;5.10;;;4.70;;
6077;SDS011;3067;49.470;10.394;2024-03-17T01:22:58;5.80;;;4.60;;
6077;SDS011;3067;49.470;10.394;2024-03-17T01:25:25;5.07;;;4.67;;
6077;SDS011;3067;49.470;10.394;2024-03-17T01:27:52;5.03;;;4.63;;
6077;SDS011;3067;49.470;10.394;2024-03-17T01:30:18;4.90;;;4.50;;
6077;SDS011;3067;49.470;10.394;2024-03-17T01:32:46;6.80;;;5.00;;
6077;SDS011;3067;49.470;10.394;2024-03-17T01:35:12;5.83;;;4.80;;
6077;SDS011;3067;49.470;10.394;2024-03-17T01:37:41;5.00;;;4.60;;
6077;SDS011;3067;49.470;10.394;2024-03-17T01:40:08;4.70;;;4.30;;
6077;SDS011;3067;49.470;10.394;2024-03-17T01:42:35;8.10;;;5.20;;
6077;SDS011;3067;49.470;10.394;2024-03-17T01:45:03;5.33;;;4.83;;
6077;SDS011;3067;49.470;10.394;2024-03-17T01:47:50;4.93;;;4.50;;
6077;SDS011;3067;49.470;10.394;2024-03-17T01:50:17;5.90;;;4.60;;
6077;SDS011;3067;49.470;10.394;2024-03-17T01:52:50;4.70;;;4.30;;
6077;SDS011;3067;49.470;10.394;2024-03-17T01:55:18;9.10;;;5.27;;
6077;SDS011;3067;49.470;10.394;2024-03-17T01:57:47;6.50;;;5.00;;
6077;SDS011;3067;49.470;10.394;2024-03-17T02:00:14;5.80;;;5.00;;
6077;SDS011;3067;49.470;10.394;2024-03-17T02:02:42;5.43;;;4.93;;
6077;SDS011;3067;49.470;10.394;2024-03-17T02:05:08;6.13;;;5.00;;
6077;SDS011;3067;49.470;10.394;2024-03-17T02:07:35;5.93;;;5.40;;
6077;SDS011;3067;49.470;10.394;2024-03-17T02:10:03;5.23;;;4.73;;
6077;SDS011;3067;49.470;10.394;2024-03-17T02:12:30;4.60;;;4.20;;
6077;SDS011;3067;49.470;10.394;2024-03-17T02:14:57;4.80;;;3.90;;
6077;SDS011;3067;49.470;10.394;2024-03-17T02:17:24;5.93;;;4.60;;
6077;SDS011;3067;49.470;10.394;2024-03-17T02:19:52;4.97;;;4.37;;
6077;SDS011;3067;49.470;10.394;2024-03-17T02:22:20;5.03;;;4.13;;
6077;SDS011;3067;49.470;10.394;2024-03-17T02:24:46;4.13;;;3.83;;
6077;SDS011;3067;49.470;10.394;2024-03-17T02:27:13;6.47;;;4.40;;
6077;SDS011;3067;49.470;10.394;2024-03-17T02:29:39;4.47;;;3.93;;
6077;SDS011;3067;49.470;10.394;2024-03-17T02:32:07;4.40;;;4.00;;
6077;SDS011;3067;49.470;10.394;2024-03-17T02:34:33;3.77;;;3.53;;
6077;SDS011;3067;49.470;10.394;2024-03-17T02:37:00;4.73;;;4.33;;
6077;SDS011;3067;49.470;10.394;2024-03-17T02:39:30;4.70;;;4.20;;
6077;SDS011;3067;49.470;10.394;2024-03-17T02:41:59;4.63;;;3.70;;
6077;SDS011;3067;49.470;10.394;2024-03-17T02:44:26;4.50;;;4.10;;
6077;SDS011;3067;49.470;10.394;2024-03-17T02:46:53;4.00;;;3.70;;
6077;SDS011;3067;49.470;10.394;2024-03-17T02:49:20;8.90;;;3.90;;
6077;SDS011;3067;49.470;10.394;2024-03-17T02:51:47;3.80;;;3.50;;
6077;SDS011;3067;49.470;10.394;2024-03-17T02:54:14;6.30;;;4.27;;
6077;SDS011;3067;49.470;10.394;2024-03-17T02:56:43;4.33;;;3.97;;
6077;SDS011;3067;49.470;10.394;2024-03-17T02:59:10;4.07;;;3.77;;
6077;SDS011;3067;49.470;10.394;2024-03-17T03:01:37;4.87;;;3.90;;
6077;SDS011;3067;49.470;10.394;2024-03-17T03:04:04;4.00;;;3.70;;
6077;SDS011;3067;49.470;10.394;2024-03-17T03:06:31;5.53;;;4.10;;
6077;SDS011;3067;49.470;10.394;2024-03-17T03:08:59;5.03;;;3.57;;
6077;SDS011;3067;49.470;10.394;2024-03-17T03:11:27;3.97;;;3.60;;
6077;SDS011;3067;49.470;10.394;2024-03-17T03:13:55;3.77;;;3.47;;
6077;SDS011;3067;49.470;10.394;2024-03-17T03:16:22;6.10;;;3.70;;
6077;SDS011;3067;49.470;10.394;2024-03-17T03:18:50;4.40;;;3.53;;
6077;SDS011;3067;49.470;10.394;2024-03-17T03:21:16;3.37;;;3.20;;
6077;SDS011;3067;49.470;10.394;2024-03-17T03:23:43;4.30;;;3.37;;
6077;SDS011;3067;49.470;10.394;2024-03-17T03:26:11;4.33;;;3.93;;
6077;SDS011;3067;49.470;10.394;2024-03-17T03:28:38;3.83;;;3.53;;
6077;SDS011;3067;49.470;10.394;2024-03-17T03:31:07;4.43;;;4.03;;
6077;SDS011;3067;49.470;10.394;2024-03-17T03:33:39;4.83;;;4.30;;
6077;SDS011;3067;49.470;10.394;2024-03-17T03:36:07;3.93;;;3.70;;
6077;SDS011;3067;49.470;10.394;2024-03-17T03:38:35;5.30;;;4.80;;
6077;SDS011;3067;49.470;10.394;2024-03-17T03:41:06;4.73;;;4.23;;
6077;SDS011;3067;49.470;10.394;2024-03-17T03:43:34;5.03;;;4.50;;
6077;SDS011;3067;49.470;10.394;2024-03-17T03:46:01;7.07;;;5.40;;
6077;SDS011;3067;49.470;10.394;2024-03-17T03:48:30;8.00;;;5.10;;
6077;SDS011;3067;49.470;10.394;2024-03-17T03:50:59;6.83;;;4.80;;
6077;SDS011;3067;49.470;10.394;2024-03-17T03:53:30;7.03;;;4.90;;
6077;SDS011;3067;49.470;10.394;2024-03-17T03:55:57;6.87;;;5.10;;
6077;SDS011;3067;49.470;10.394;2024-03-17T03:58:24;6.40;;;5.33;;
6077;SDS011;3067;49.470;10.394;2024-03-17T04:00:51;6.27;;;4.77;;
6077;SDS011;3067;49.470;10.394;2024-03-17T04:03:18;5.80;;;5.20;;
6077;SDS011;3067;49.470;10.394;2024-03-17T04:05:47;8.00;;;5.13;;
6077;SDS011;3067;49.470;10.394;2024-03-17T04:08:14;8.80;;;5.60;;
6077;SDS011;3067;49.470;10.394;2024-03-17T04:10:43;8.73;;;4.57;;
6077;SDS011;3067;49.470;10.394;2024-03-17T04:13:10;5.10;;;4.60;;
6077;SDS011;3067;49.470;10.394;2024-03-17T04:15:37;4.47;;;4.17;;
6077;SDS011;3067;49.470;10.394;2024-03-17T04:18:04;5.37;;;4.87;;
6077;SDS011;3067;49.470;10.394;2024-03-17T04:20:31;5.03;;;4.63;;
6077;SDS011;3067;49.470;10.394;2024-03-17T04:23:00;5.63;;;5.03;;
6077;SDS011;3067;49.470;10.394;2024-03-17T04:25:28;4.73;;;4.33;;
6077;SDS011;3067;49.470;10.394;2024-03-17T04:27:55;6.23;;;4.77;;
6077;SDS011;3067;49.470;10.394;2024-03-17T04:30:23;6.87;;;5.40;;
6077;SDS011;3067;49.470;10.394;2024-03-17T04:32:50;5.83;;;4.80;;
6077;SDS011;3067;49.470;10.394;2024-03-17T04:35:18;5.43;;;4.93;;
6077;SDS011;3067;49.470;10.394;2024-03-17T04:37:45;4.60;;;4.20;;
6077;SDS011;3067;49.470;10.394;2024-03-17T04:40:14;4.90;;;4.40;;
6077;SDS011;3067;49.470;10.394;2024-03-17T04:42:41;7.47;;;5.03;;
6077;SDS011;3067;49.470;10.394;2024-03-17T04:45:08;5.93;;;4.87;;
6077;SDS011;3067;49.470;10.394;2024-03-17T04:47:36;5.20;;;4.53;;
6077;SDS011;3067;49.470;10.394;2024-03-17T04:50:03;5.27;;;4.77;;
6077;SDS011;3067;49.470;10.394;2024-03-17T04:52:31;5.30;;;4.80;;
6077;SDS011;3067;49.470;10.394;2024-03-17T04:54:58;6.00;;;5.40;;
6077;SDS011;3067;49.470;10.394;2024-03-17T04:57:26;8.67;;;5.07;;
6077;SDS011;3067;49.470;10.394;2024-03-17T04:59:53;5.43;;;3.90;;
6077;SDS011;3067;49.470;10.394;2024-03-17T05:02:20;5.07;;;4.47;;
6077;SDS011;3067;49.470;10.394;2024-03-17T05:04:48;4.60;;;4.20;;
6077;SDS011;3067;49.470;10.394;2024-03-17T05:07:15;5.47;;;4.90;;
6077;SDS011;3067;49.470;10.394;2024-03-17T05:09:42;5.27;;;4.73;;
6077;SDS011;3067;49.470;10.394;2024-03-17T05:12:10;5.83;;;4.60;;
6077;SDS011;3067;49.470;10.394;2024-03-17T05:14:38;6.90;;;4.60;;
6077;SDS011;3067;49.470;10.394;2024-03-17T05:17:06;7.53;;;4.40;;
6077;SDS011;3067;49.470;10.394;2024-03-17T05:19:33;6.27;;;4.93;;
6077;SDS011;3067;49.470;10.394;2024-03-17T05:22:00;6.07;;;4.80;;
6077;SDS011;3067;49.470;10.394;2024-03-17T05:24:27;8.03;;;4.80;;
6077;SDS011;3067;49.470;10.394;2024-03-17T05:26:54;5.97;;;4.80;;
6077;SDS011;3067;49.470;10.394;2024-03-17T05:29:21;5.13;;;4.63;;
6077;SDS011;3067;49.470;10.394;2024-03-17T05:31:49;4.97;;;4.57;;
6077;SDS011;3067;49.470;10.394;2024-03-17T05:34:16;5.90;;;4.70;;
6077;SDS011;3067;49.470;10.394;2024-03-17T05:36:44;6.33;;;4.90;;
6077;SDS011;3067;49.470;10.394;2024-03-17T05:39:12;4.60;;;4.30;;
6077;SDS011;3067;49.470;10.394;2024-03-17T05:41:39;6.73;;;4.97;;
6077;SDS011;3067;49.470;10.394;2024-03-17T05:44:08;7.03;;;5.00;;
6077;SDS011;3067;49.470;10.394;2024-03-17T05:46:35;6.70;;;4.80;;
6077;SDS011;3067;49.470;10.394;2024-03-17T05:49:04;5.20;;;4.70;;
6077;SDS011;3067;49.470;10.394;2024-03-17T05:51:31;9.23;;;5.43;;
6077;SDS011;3067;49.470;10.394;2024-03-17T05:53:59;5.80;;;5.20;;
6077;SDS011;3067;49.470;10.394;2024-03-17T05:56:26;5.70;;;5.20;;
6077;SDS011;3067;49.470;10.394;2024-03-17T05:58:53;5.37;;;4.83;;
6077;SDS011;3067;49.470;10.394;2024-03-17T06:01:20;7.00;;;5.17;;
6077;SDS011;3067;49.470;10.394;2024-03-17T06:03:47;7.73;;;4.80;;
6077;SDS011;3067;49.470;10.394;2024-03-17T06:06:16;5.53;;;4.80;;
6077;SDS011;3067;49.470;10.394;2024-03-17T06:08:43;6.43;;;5.73;;
6077;SDS011;3067;49.470;10.394;2024-03-17T06:11:10;6.80;;;5.80;;
6077;SDS011;3067;49.470;10.394;2024-03-17T06:13:38;6.07;;;5.47;;
6077;SDS011;3067;49.470;10.394;2024-03-17T06:16:05;9.83;;;6.40;;
6077;SDS011;3067;49.470;10.394;2024-03-17T06:18:32;11.67;;;7.07;;
6077;SDS011;3067;49.470;10.394;2024-03-17T06:20:59;8.33;;;6.73;;
6077;SDS011;3067;49.470;10.394;2024-03-17T06:23:28;8.70;;;6.47;;
6077;SDS011;3067;49.470;10.394;2024-03-17T06:25:55;5.67;;;5.17;;
6077;SDS011;3067;49.470;10.394;2024-03-17T06:28:22;7.27;;;5.30;;
6077;SDS011;3067;49.470;10.394;2024-03-17T06:30:54;6.20;;;5.10;;
6077;SDS011;3067;49.470;10.394;2024-03-17T06:33:24;6.00;;;5.40;;
6077;SDS011;3067;49.470;10.394;2024-03-17T06:35:53;7.30;;;5.60;;
6077;SDS011;3067;49.470;10.394;2024-03-17T06:38:20;7.03;;;5.77;;
6077;SDS011;3067;49.470;10.394;2024-03-17T06:40:49;5.83;;;5.20;;
6077;SDS011;3067;49.470;10.394;2024-03-17T06:43:17;7.70;;;6.07;;
6077;SDS011;3067;49.470;10.394;2024-03-17T06:45:56;8.77;;;6.00;;
6077;SDS011;3067;49.470;10.394;2024-03-17T06:48:31;8.30;;;5.67;;
6077;SDS011;3067;49.470;10.394;2024-03-17T06:51:48;6.20;;;5.00;;
6077;SDS011;3067;49.470;10.394;2024-03-17T06:54:38;8.87;;;6.20;;
6077;SDS011;3067;49.470;10.394;2024-03-17T07:04:01;8.00;;;6.63;;
6077;SDS011;3067;49.470;10.394;2024-03-17T07:07:01;8.63;;;6.90;;
6077;SDS011;3067;49.470;10.394;2024-03-17T07:10:11;14.90;;;7.20;;
6077;SDS011;3067;49.470;10.394;2024-03-17T07:13:14;8.30;;;6.80;;
6077;SDS011;3067;49.470;10.394;2024-03-17T07:16:06;8.80;;;6.73;;
6077;SDS011;3067;49.470;10.394;2024-03-17T07:18:36;12.43;;;7.07;;
6077;SDS011;3067;49.470;10.394;2024-03-17T07:21:05;8.53;;;7.27;;
6077;SDS011;3067;49.470;10.394;2024-03-17T07:23:44;8.90;;;7.20;;
6077;SDS011;3067;49.470;10.394;2024-03-17T07:26:11;9.43;;;6.80;;
6077;SDS011;3067;49.470;10.394;2024-03-17T07:28:42;8.97;;;7.00;;
6077;SDS011;3067;49.470;10.394;2024-03-17T07:31:16;9.77;;;7.63;;
6077;SDS011;3067;49.470;10.394;2024-03-17T07:33:43;8.27;;;6.83;;
6077;SDS011;3067;49.470;10.394;2024-03-17T07:36:10;13.50;;;7.20;;
6077;SDS011;3067;49.470;10.394;2024-03-17T07:38:37;8.17;;;7.20;;
6077;SDS011;3067;49.470;10.394;2024-03-17T07:41:04;9.33;;;7.33;;
6077;SDS011;3067;49.470;10.394;2024-03-17T07:43:33;7.53;;;6.70;;
6077;SDS011;3067;49.470;10.394;2024-03-17T07:46:01;9.30;;;7.20;;
6077;SDS011;3067;49.470;10.394;2024-03-17T07:48:31;9.33;;;6.80;;
6077;SDS011;3067;49.470;10.394;2024-03-17T07:51:00;9.17;;;6.50;;
6077;SDS011;3067;49.470;10.394;2024-03-17T07:53:29;6.83;;;5.90;;
6077;SDS011;3067;49.470;10.394;2024-03-17T07:55:57;7.30;;;6.40;;
6077;SDS011;3067;49.470;10.394;2024-03-17T07:58:25;8.73;;;6.80;;
6077;SDS011;3067;49.470;10.394;2024-03-17T08:00:52;8.73;;;6.57;;
6077;SDS011;3067;49.470;10.394;2024-03-17T08:03:24;7.97;;;6.50;;
6077;SDS011;3067;49.470;10.394;2024-03-17T08:05:53;8.30;;;7.00;;
6077;SDS011;3067;49.470;10.394;2024-03-17T08:08:20;8.03;;;7.20;;
6077;SDS011;3067;49.470;10.394;2024-03-17T08:10:47;10.53;;;6.80;;
6077;SDS011;3067;49.470;10.394;2024-03-17T08:13:15;8.10;;;6.53;;
6077;SDS011;3067;49.470;10.394;2024-03-17T08:15:42;8.63;;;7.20;;
6077;SDS011;3067;49.470;10.394;2024-03-17T08:18:10;9.90;;;7.50;;
6077;SDS011;3067;49.470;10.394;2024-03-17T08:20:37;10.43;;;7.10;;
6077;SDS011;3067;49.470;10.394;2024-03-17T08:23:06;8.30;;;7.20;;
6077;SDS011;3067;49.470;10.394;2024-03-17T08:25:33;9.07;;;7.07;;
6077;SDS011;3067;49.470;10.394;2024-03-17T08:28:01;11.13;;;8.17;;
6077;SDS011;3067;49.470;10.394;2024-03-17T08:30:28;9.23;;;7.27;;
6077;SDS011;3067;49.470;10.394;2024-03-17T08:32:56;7.07;;;6.37;;
6077;SDS011;3067;49.470;10.394;2024-03-17T08:35:23;13.13;;;7.20;;
6077;SDS011;3067;49.470;10.394;2024-03-17T08:37:50;8.17;;;7.17;;
6077;SDS011;3067;49.470;10.394;2024-03-17T08:40:20;8.40;;;7.13;;
6077;SDS011;3067;49.470;10.394;2024-03-17T08:42:47;10.60;;;7.17;;
6077;SDS011;3067;49.470;10.394;2024-03-17T08:45:15;12.07;;;7.93;;
6077;SDS011;3067;49.470;10.394;2024-03-17T08:47:42;7.70;;;6.47;;
6077;SDS011;3067;49.470;10.394;2024-03-17T08:50:09;11.47;;;7.63;;
6077;SDS011;3067;49.470;10.394;2024-03-17T08:52:37;9.47;;;7.63;;
6077;SDS011;3067;49.470;10.394;2024-03-17T08:55:05;11.87;;;7.90;;
6077;SDS011;3067;49.470;10.394;2024-03-17T08:57:37;15.20;;;7.77;;
6077;SDS011;3067;49.470;10.394;2024-03-17T09:00:05;7.90;;;7.10;;
6077;SDS011;3067;49.470;10.394;2024-03-17T09:02:34;8.47;;;7.03;;
6077;SDS011;3067;49.470;10.394;2024-03-17T09:05:01;11.03;;;8.70;;
6077;SDS011;3067;49.470;10.394;2024-03-17T09:07:29;16.87;;;8.53;;
6077;SDS011;3067;49.470;10.394;2024-03-17T09:09:56;11.00;;;7.10;;
6077;SDS011;3067;49.470;10.394;2024-03-17T09:12:24;10.03;;;7.00;;
6077;SDS011;3067;49.470;10.394;2024-03-17T09:14:54;7.10;;;6.40;;
6077;SDS011;3067;49.470;10.394;2024-03-17T09:17:21;9.57;;;6.40;;
6077;SDS011;3067;49.470;10.394;2024-03-17T09:19:48;8.70;;;6.77;;
6077;SDS011;3067;49.470;10.394;2024-03-17T09:22:15;11.77;;;5.03;;
6077;SDS011;3067;49.470;10.394;2024-03-17T09:24:42;6.07;;;4.87;;
6077;SDS011;3067;49.470;10.394;2024-03-17T09:27:09;4.77;;;4.30;;
6077;SDS011;3067;49.470;10.394;2024-03-17T09:29:36;4.90;;;4.50;;
6077;SDS011;3067;49.470;10.394;2024-03-17T09:32:04;5.63;;;5.13;;
6077;SDS011;3067;49.470;10.394;2024-03-17T09:34:33;5.17;;;4.70;;
6077;SDS011;3067;49.470;10.394;2024-03-17T09:37:00;4.60;;;4.30;;
6077;SDS011;3067;49.470;10.394;2024-03-17T09:39:27;6.37;;;5.10;;
6077;SDS011;3067;49.470;10.394;2024-03-17T09:41:54;7.90;;;4.73;;
6077;SDS011;3067;49.470;10.394;2024-03-17T09:44:22;5.00;;;4.60;;
6077;SDS011;3067;49.470;10.394;2024-03-17T09:46:49;5.13;;;4.73;;
6077;SDS011;3067;49.470;10.394;2024-03-17T09:49:18;7.60;;;5.23;;
6077;SDS011;3067;49.470;10.394;2024-03-17T09:51:45;5.83;;;5.20;;
6077;SDS011;3067;49.470;10.394;2024-03-17T09:54:16;6.00;;;4.90;;
6077;SDS011;3067;49.470;10.394;2024-03-17T09:56:45;5.83;;;5.33;;
6077;SDS011;3067;49.470;10.394;2024-03-17T09:59:12;5.63;;;5.17;;
6077;SDS011;3067;49.470;10.394;2024-03-17T10:01:39;5.83;;;5.33;;
6077;SDS011;3067;49.470;10.394;2024-03-17T10:04:07;6.50;;;5.90;;
6077;SDS011;3067;49.470;10.394;2024-03-17T10:06:43;6.67;;;5.97;;
6077;SDS011;3067;49.470;10.394;2024-03-17T10:09:14;6.80;;;5.47;;
6077;SDS011;3067;49.470;10.394;2024-03-17T10:11:46;5.70;;;5.20;;
6077;SDS011;3067;49.470;10.394;2024-03-17T10:14:16;6.67;;;6.00;;
6077;SDS011;3067;49.470;10.394;2024-03-17T10:16:44;6.27;;;5.67;;
6077;SDS011;3067;49.470;10.394;2024-03-17T10:19:11;7.40;;;5.80;;
6077;SDS011;3067;49.470;10.394;2024-03-17T10:21:41;5.73;;;5.23;;
6077;SDS011;3067;49.470;10.394;2024-03-17T10:24:09;6.00;;;5.40;;
6077;SDS011;3067;49.470;10.394;2024-03-17T10:26:40;7.03;;;5.50;;
6077;SDS011;3067;49.470;10.394;2024-03-17T10:29:19;9.40;;;6.13;;
6077;SDS011;3067;49.470;10.394;2024-03-17T10:31:49;5.27;;;4.77;;
6077;SDS011;3067;49.470;10.394;2024-03-17T10:34:17;6.23;;;5.67;;
6077;SDS011;3067;49.470;10.394;2024-03-17T10:36:46;7.00;;;5.83;;
6077;SDS011;3067;49.470;10.394;2024-03-17T10:39:25;6.17;;;5.50;;
6077;SDS011;3067;49.470;10.394;2024-03-17T10:41:58;7.37;;;6.10;;
6077;SDS011;3067;49.470;10.394;2024-03-17T10:44:29;6.80;;;5.90;;
6077;SDS011;3067;49.470;10.394;2024-03-17T10:46:57;7.93;;;5.80;;
6077;SDS011;3067;49.470;10.394;2024-03-17T10:49:27;7.83;;;6.10;;
6077;SDS011;3067;49.470;10.394;2024-03-17T10:51:59;6.07;;;5.57;;
6077;SDS011;3067;49.470;10.394;2024-03-17T10:54:27;7.17;;;6.47;;
6077;SDS011;3067;49.470;10.394;2024-03-17T10:56:55;8.60;;;6.20;;
6077;SDS011;3067;49.470;10.394;2024-03-17T10:59:26;6.77;;;6.20;;
6077;SDS011;3067;49.470;10.394;2024-03-17T11:02:05;8.90;;;6.03;;
6077;SDS011;3067;49.470;10.394;2024-03-17T11:04:49;7.03;;;5.47;;
6077;SDS011;3067;49.470;10.394;2024-03-17T11:07:19;6.27;;;5.73;;
6077;SDS011;3067;49.470;10.394;2024-03-17T11:09:47;6.73;;;6.10;;
6077;SDS011;3067;49.470;10.394;2024-03-17T11:21:05;6.23;;;5.63;;
6077;SDS011;3067;49.470;10.394;2024-03-17T11:23:42;6.63;;;5.80;;
6077;SDS011;3067;49.470;10.394;2024-03-17T11:26:10;9.60;;;7.33;;
6077;SDS011;3067;49.470;10.394;2024-03-17T11:28:47;12.40;;;7.30;;
6077;SDS011;3067;49.470;10.394;2024-03-17T11:37:09;6.63;;;5.83;;
6077;SDS011;3067;49.470;10.394;2024-03-17T11:43:03;6.70;;;6.00;;
6077;SDS011;3067;49.470;10.394;2024-03-17T11:45:31;6.73;;;6.13;;
6077;SDS011;3067;49.470;10.394;2024-03-17T11:47:57;6.83;;;6.13;;
6077;SDS011;3067;49.470;10.394;2024-03-17T11:50:24;7.13;;;6.50;;
6077;SDS011;3067;49.470;10.394;2024-03-17T11:52:57;6.97;;;6.17;;
6077;SDS011;3067;49.470;10.394;2024-03-17T11:55:24;7.63;;;6.17;;
6077;SDS011;3067;49.470;10.394;2024-03-17T11:57:55;8.70;;;6.47;;
6077;SDS011;3067;49.470;10.394;2024-03-17T12:00:24;7.80;;;6.50;;
6077;SDS011;3067;49.470;10.394;2024-03-17T12:02:51;6.13;;;5.63;;
6077;SDS011;3067;49.470;10.394;2024-03-17T12:05:18;7.33;;;5.97;;
6077;SDS011;3067;49.470;10.394;2024-03-17T12:07:46;6.90;;;6.30;;
6077;SDS011;3067;49.470;10.394;2024-03-17T12:10:13;6.87;;;6.20;;
6077;SDS011;3067;49.470;10.394;2024-03-17T12:12:39;6.93;;;6.10;;
6077;SDS011;3067;49.470;10.394;2024-03-17T12:15:22;6.83;;;6.13;;
6077;SDS011;3067;49.470;10.394;2024-03-17T12:18:02;6.70;;;6.00;;
6077;SDS011;3067;49.470;10.394;2024-03-17T12:20:47;8.27;;;6.20;;
6077;SDS011;3067;49.470;10.394;2024-03-17T12:23:15;7.17;;;6.47;;
6077;SDS011;3067;49.470;10.394;2024-03-17T12:25:48;7.63;;;6.80;;
6077;SDS011;3067;49.470;10.394;2024-03-17T12:28:18;7.40;;;6.70;;
6077;SDS011;3067;49.470;10.394;2024-03-17T12:30:55;7.13;;;6.43;;
6077;SDS011;3067;49.470;10.394;2024-03-17T12:33:26;7.23;;;6.50;;
6077;SDS011;3067;49.470;10.394;2024-03-17T12:35:54;7.40;;;6.70;;
6077;SDS011;3067;49.470;10.394;2024-03-17T12:38:28;7.43;;;6.40;;
6077;SDS011;3067;49.470;10.394;2024-03-17T12:40:59;8.07;;;6.63;;
6077;SDS011;3067;49.470;10.394;2024-03-17T12:43:32;7.00;;;6.30;;
6077;SDS011;3067;49.470;10.394;2024-03-17T12:46:19;6.30;;;5.60;;
6077;SDS011;3067;49.470;10.394;2024-03-17T12:48:45;6.40;;;5.80;;
6077;SDS011;3067;49.470;10.394;2024-03-17T12:51:13;8.67;;;6.97;;
6077;SDS011;3067;49.470;10.394;2024-03-17T12:53:39;6.93;;;6.23;;
6077;SDS011;3067;49.470;10.394;2024-03-17T12:56:06;6.43;;;5.93;;
6077;SDS011;3067;49.470;10.394;2024-03-17T12:58:51;11.00;;;6.37;;
6077;SDS011;3067;49.470;10.394;2024-03-17T13:01:36;7.00;;;6.30;;
6077;SDS011;3067;49.470;10.394;2024-03-17T13:04:07;7.00;;;6.30;;
6077;SDS011;3067;49.470;10.394;2024-03-17T13:06:34;6.80;;;6.20;;
6077;SDS011;3067;49.470;10.394;2024-03-17T13:09:01;6.10;;;5.60;;
6077;SDS011;3067;49.470;10.394;2024-03-17T13:11:28;7.23;;;6.63;;
6077;SDS011;3067;49.470;10.394;2024-03-17T13:13:55;6.03;;;5.50;;
6077;SDS011;3067;49.470;10.394;2024-03-17T13:16:22;8.30;;;6.03;;
6077;SDS011;3067;49.470;10.394;2024-03-17T13:18:51;6.80;;;6.10;;
6077;SDS011;3067;49.470;10.394;2024-03-17T13:21:18;6.00;;;5.47;;
6077;SDS011;3067;49.470;10.394;2024-03-17T13:23:45;6.30;;;5.80;;
6077;SDS011;3067;49.470;10.394;2024-03-17T13:26:12;7.00;;;5.93;;
6077;SDS011;3067;49.470;10.394;2024-03-17T13:28:39;6.80;;;5.80;;
6077;SDS011;3067;49.470;10.394;2024-03-17T13:31:06;10.70;;;6.60;;
6077;SDS011;3067;49.470;10.394;2024-03-17T13:33:36;9.80;;;6.27;;
6077;SDS011;3067;49.470;10.394;2024-03-17T13:36:05;7.33;;;6.10;;
6077;SDS011;3067;49.470;10.394;2024-03-17T13:38:32;6.57;;;6.07;;
6077;SDS011;3067;49.470;10.394;2024-03-17T13:41:00;7.50;;;6.80;;
6077;SDS011;3067;49.470;10.394;2024-03-17T13:43:30;7.10;;;6.40;;
6077;SDS011;3067;49.470;10.394;2024-03-17T13:45:57;7.23;;;6.53;;
6077;SDS011;3067;49.470;10.394;2024-03-17T13:48:24;7.53;;;6.80;;
6077;SDS011;3067;49.470;10.394;2024-03-17T13:50:51;7.50;;;6.70;;
6077;SDS011;3067;49.470;10.394;2024-03-17T13:53:19;22.23;;;6.77;;
6077;SDS011;3067;49.470;10.394;2024-03-17T13:55:47;7.63;;;6.83;;
6077;SDS011;3067;49.470;10.394;2024-03-17T13:58:14;8.57;;;7.03;;
6077;SDS011;3067;49.470;10.394;2024-03-17T14:00:41;8.43;;;6.50;;
6077;SDS011;3067;49.470;10.394;2024-03-17T14:03:08;7.40;;;6.70;;
6077;SDS011;3067;49.470;10.394;2024-03-17T14:05:35;9.07;;;6.63;;
6077;SDS011;3067;49.470;10.394;2024-03-17T14:08:03;8.73;;;6.60;;
6077;SDS011;3067;49.470;10.394;2024-03-17T14:10:32;7.43;;;6.63;;
6077;SDS011;3067;49.470;10.394;2024-03-17T14:13:00;7.37;;;6.70;;
6077;SDS011;3067;49.470;10.394;2024-03-17T14:15:27;6.93;;;6.37;;
6077;SDS011;3067;49.470;10.394;2024-03-17T14:17:54;9.10;;;6.93;;
6077;SDS011;3067;49.470;10.394;2024-03-17T14:20:21;11.20;;;7.43;;
6077;SDS011;3067;49.470;10.394;2024-03-17T14:22:49;7.17;;;6.50;;
6077;SDS011;3067;49.470;10.394;2024-03-17T14:27:55;6.77;;;6.17;;
6077;SDS011;3067;49.470;10.394;2024-03-17T14:30:22;6.83;;;6.23;;
6077;SDS011;3067;49.470;10.394;2024-03-17T14:32:58;9.47;;;7.27;;
6077;SDS011;3067;49.470;10.394;2024-03-17T14:35:33;14.43;;;7.30;;
6077;SDS011;3067;49.470;10.394;2024-03-17T14:38:13;7.13;;;6.10;;
6077;SDS011;3067;49.470;10.394;2024-03-17T14:40:42;11.10;;;6.80;;
6077;SDS011;3067;49.470;10.394;2024-03-17T14:43:18;7.07;;;6.47;;
6077;SDS011;3067;49.470;10.394;2024-03-17T14:45:53;7.47;;;6.73;;
6077;SDS011;3067;49.470;10.394;2024-03-17T14:48:20;6.83;;;6.23;;
6077;SDS011;3067;49.470;10.394;2024-03-17T14:50:53;7.10;;;6.40;;
6077;SDS011;3067;49.470;10.394;2024-03-17T14:53:35;7.20;;;6.50;;
6077;SDS011;3067;49.470;10.394;2024-03-17T14:56:12;7.93;;;6.63;;
6077;SDS011;3067;49.470;10.394;2024-03-17T14:58:44;10.17;;;7.27;;
6077;SDS011;3067;49.470;10.394;2024-03-17T15:01:12;11.70;;;6.57;;
6077;SDS011;3067;49.470;10.394;2024-03-17T15:03:39;10.10;;;8.13;;
6077;SDS011;3067;49.470;10.394;2024-03-17T15:06:09;9.87;;;8.00;;
6077;SDS011;3067;49.470;10.394;2024-03-17T15:09:34;10.23;;;6.90;;
6077;SDS011;3067;49.470;10.394;2024-03-17T15:11:52;9.60;;;6.90;;
6077;SDS011;3067;49.470;10.394;2024-03-17T15:14:22;9.77;;;6.80;;
6077;SDS011;3067;49.470;10.394;2024-03-17T15:16:50;7.93;;;6.90;;
6077;SDS011;3067;49.470;10.394;2024-03-17T15:19:41;7.13;;;6.43;;
6077;SDS011;3067;49.470;10.394;2024-03-17T15:22:08;7.87;;;7.10;;
6077;SDS011;3067;49.470;10.394;2024-03-17T15:24:53;7.50;;;6.80;;
6077;SDS011;3067;49.470;10.394;2024-03-17T15:27:20;7.30;;;6.70;;
6077;SDS011;3067;49.470;10.394;2024-03-17T15:33:01;8.90;;;6.83;;
6077;SDS011;3067;49.470;10.394;2024-03-17T15:35:28;8.60;;;7.10;;
6077;SDS011;3067;49.470;10.394;2024-03-17T15:37:56;7.60;;;6.70;;
6077;SDS011;3067;49.470;10.394;2024-03-17T15:40:23;8.43;;;7.13;;
6077;SDS011;3067;49.470;10.394;2024-03-17T15:42:50;8.57;;;7.23;;
6077;SDS011;3067;49.470;10.394;2024-03-17T15:45:19;14.07;;;7.83;;